sensor_id;sensor_type;location;lat;lon;timestamp;temperature;humidity
13652;DHT22;6899;51.546;6.912;2022-07-12T00:02:00;13.80;99.90
13652;DHT22;6899;51.546;6.912;2022-07-12T00:04:27;13.80;99.90
13652;DHT22;6899;51.546;6.912;2022-07-12T00:06:55;13.80;99.90
13652;DHT22;6899;51.546;6.912;2022-07-12T00:09:22;13.80;99.90
13652;DHT22;6899;51.546;6.912;2022-07-12T00:11:49;13.70;99.90
13652;DHT22;6899;51.546;6.912;2022-07-12T00:14:16;13.70;99.90
13652;DHT22;6899;51.546;6.912;2022-07-12T00:16:43;13.70;99.90
13652;DHT22;6899;51.546;6.912;2022-07-12T00:19:10;13.70;99.90
13652;DHT22;6899;51.546;6.912;2022-07-12T00:21:36;13.70;99.90
13652;DHT22;6899;51.546;6.912;2022-07-12T00:24:05;13.70;99.90
13652;DHT22;6899;51.546;6.912;2022-07-12T00:26:32;13.70;99.90
13652;DHT22;6899;51.546;6.912;2022-07-12T00:28:58;13.60;99.90
13652;DHT22;6899;51.546;6.912;2022-07-12T00:31:25;13.60;99.90
13652;DHT22;6899;51.546;6.912;2022-07-12T00:33:53;13.50;99.90
13652;DHT22;6899;51.546;6.912;2022-07-12T00:36:20;13.50;99.90
13652;DHT22;6899;51.546;6.912;2022-07-12T00:38:47;13.50;99.90
13652;DHT22;6899;51.546;6.912;2022-07-12T00:41:15;13.50;99.90
13652;DHT22;6899;51.546;6.912;2022-07-12T00:43:42;13.50;99.90
13652;DHT22;6899;51.546;6.912;2022-07-12T00:46:09;13.50;99.90
13652;DHT22;6899;51.546;6.912;2022-07-12T00:48:36;13.40;99.90
13652;DHT22;6899;51.546;6.912;2022-07-12T00:51:03;13.40;99.90
13652;DHT22;6899;51.546;6.912;2022-07-12T00:53:30;13.40;99.90
13652;DHT22;6899;51.546;6.912;2022-07-12T00:55:58;13.40;99.90
13652;DHT22;6899;51.546;6.912;2022-07-12T00:58:27;13.40;99.90
13652;DHT22;6899;51.546;6.912;2022-07-12T01:00:55;13.40;99.90
13652;DHT22;6899;51.546;6.912;2022-07-12T01:03:23;13.30;99.90
13652;DHT22;6899;51.546;6.912;2022-07-12T01:05:51;13.30;99.90
13652;DHT22;6899;51.546;6.912;2022-07-12T01:08:17;13.30;99.90
13652;DHT22;6899;51.546;6.912;2022-07-12T01:10:45;13.30;99.90
13652;DHT22;6899;51.546;6.912;2022-07-12T01:13:13;13.20;99.90
13652;DHT22;6899;51.546;6.912;2022-07-12T01:15:42;13.20;99.90
13652;DHT22;6899;51.546;6.912;2022-07-12T01:18:09;13.20;99.90
13652;DHT22;6899;51.546;6.912;2022-07-12T01:20:36;13.10;99.90
13652;DHT22;6899;51.546;6.912;2022-07-12T01:23:05;13.20;99.90
13652;DHT22;6899;51.546;6.912;2022-07-12T01:25:32;13.20;99.90
13652;DHT22;6899;51.546;6.912;2022-07-12T01:27:59;13.10;99.90
13652;DHT22;6899;51.546;6.912;2022-07-12T01:30:26;13.10;99.90
13652;DHT22;6899;51.546;6.912;2022-07-12T01:32:53;13.00;99.90
13652;DHT22;6899;51.546;6.912;2022-07-12T01:35:21;13.00;99.90
13652;DHT22;6899;51.546;6.912;2022-07-12T01:37:49;13.10;99.90
13652;DHT22;6899;51.546;6.912;2022-07-12T01:40:17;13.10;99.90
13652;DHT22;6899;51.546;6.912;2022-07-12T01:42:45;13.00;99.90
13652;DHT22;6899;51.546;6.912;2022-07-12T01:45:12;13.00;99.90
13652;DHT22;6899;51.546;6.912;2022-07-12T01:47:40;12.90;99.90
13652;DHT22;6899;51.546;6.912;2022-07-12T01:50:09;12.80;99.90
13652;DHT22;6899;51.546;6.912;2022-07-12T01:52:38;12.80;99.90
13652;DHT22;6899;51.546;6.912;2022-07-12T01:55:06;12.90;99.90
13652;DHT22;6899;51.546;6.912;2022-07-12T01:57:35;12.90;99.90
13652;DHT22;6899;51.546;6.912;2022-07-12T02:00:04;12.90;99.90
13652;DHT22;6899;51.546;6.912;2022-07-12T02:02:31;12.80;99.90
13652;DHT22;6899;51.546;6.912;2022-07-12T02:04:59;12.90;99.90
13652;DHT22;6899;51.546;6.912;2022-07-12T02:07:26;12.90;99.90
13652;DHT22;6899;51.546;6.912;2022-07-12T02:09:59;12.70;99.90
13652;DHT22;6899;51.546;6.912;2022-07-12T02:12:26;12.70;99.90
13652;DHT22;6899;51.546;6.912;2022-07-12T02:14:54;12.70;99.90
13652;DHT22;6899;51.546;6.912;2022-07-12T02:17:21;12.70;99.90
13652;DHT22;6899;51.546;6.912;2022-07-12T02:19:48;12.60;99.90
13652;DHT22;6899;51.546;6.912;2022-07-12T02:22:15;12.60;99.90
13652;DHT22;6899;51.546;6.912;2022-07-12T02:24:42;12.60;99.90
13652;DHT22;6899;51.546;6.912;2022-07-12T02:27:08;12.70;99.90
13652;DHT22;6899;51.546;6.912;2022-07-12T02:29:35;12.70;99.90
13652;DHT22;6899;51.546;6.912;2022-07-12T02:32:04;12.70;99.90
13652;DHT22;6899;51.546;6.912;2022-07-12T02:34:31;12.70;99.90
13652;DHT22;6899;51.546;6.912;2022-07-12T02:36:58;12.70;99.90
13652;DHT22;6899;51.546;6.912;2022-07-12T02:39:25;12.70;99.90
13652;DHT22;6899;51.546;6.912;2022-07-12T02:41:52;12.70;99.90
13652;DHT22;6899;51.546;6.912;2022-07-12T02:44:19;12.60;99.90
13652;DHT22;6899;51.546;6.912;2022-07-12T02:46:46;12.60;99.90
13652;DHT22;6899;51.546;6.912;2022-07-12T02:49:14;12.60;99.90
13652;DHT22;6899;51.546;6.912;2022-07-12T02:51:41;12.60;99.90
13652;DHT22;6899;51.546;6.912;2022-07-12T02:54:08;12.60;99.90
13652;DHT22;6899;51.546;6.912;2022-07-12T02:56:35;12.50;99.90
13652;DHT22;6899;51.546;6.912;2022-07-12T02:59:02;12.40;99.90
13652;DHT22;6899;51.546;6.912;2022-07-12T03:01:29;12.50;99.90
13652;DHT22;6899;51.546;6.912;2022-07-12T03:03:56;12.50;99.90
13652;DHT22;6899;51.546;6.912;2022-07-12T03:06:24;12.50;99.90
13652;DHT22;6899;51.546;6.912;2022-07-12T03:08:51;12.60;99.90
13652;DHT22;6899;51.546;6.912;2022-07-12T03:11:18;12.60;99.90
13652;DHT22;6899;51.546;6.912;2022-07-12T03:13:45;12.60;99.90
13652;DHT22;6899;51.546;6.912;2022-07-12T03:16:12;12.50;99.90
13652;DHT22;6899;51.546;6.912;2022-07-12T03:18:39;12.50;99.90
13652;DHT22;6899;51.546;6.912;2022-07-12T03:21:06;12.50;99.90
13652;DHT22;6899;51.546;6.912;2022-07-12T03:23:35;12.60;99.90
13652;DHT22;6899;51.546;6.912;2022-07-12T03:26:02;12.50;99.90
13652;DHT22;6899;51.546;6.912;2022-07-12T03:28:29;12.50;99.90
13652;DHT22;6899;51.546;6.912;2022-07-12T03:30:56;12.40;99.90
13652;DHT22;6899;51.546;6.912;2022-07-12T03:33:23;12.50;99.90
13652;DHT22;6899;51.546;6.912;2022-07-12T03:35:50;12.50;99.90
13652;DHT22;6899;51.546;6.912;2022-07-12T03:38:16;12.50;99.90
13652;DHT22;6899;51.546;6.912;2022-07-12T03:40:45;12.50;99.90
13652;DHT22;6899;51.546;6.912;2022-07-12T03:43:12;12.50;99.90
13652;DHT22;6899;51.546;6.912;2022-07-12T03:45:39;12.50;99.90
13652;DHT22;6899;51.546;6.912;2022-07-12T03:48:08;12.60;99.90
13652;DHT22;6899;51.546;6.912;2022-07-12T03:50:35;12.50;99.90
13652;DHT22;6899;51.546;6.912;2022-07-12T03:53:02;12.60;99.90
13652;DHT22;6899;51.546;6.912;2022-07-12T03:55:29;12.60;99.90
13652;DHT22;6899;51.546;6.912;2022-07-12T03:57:57;12.60;99.90
13652;DHT22;6899;51.546;6.912;2022-07-12T04:00:24;12.70;99.90
13652;DHT22;6899;51.546;6.912;2022-07-12T04:02:51;12.70;99.90
13652;DHT22;6899;51.546;6.912;2022-07-12T04:05:20;12.70;99.90
13652;DHT22;6899;51.546;6.912;2022-07-12T04:07:51;12.70;99.90
13652;DHT22;6899;51.546;6.912;2022-07-12T04:10:18;12.80;99.90
13652;DHT22;6899;51.546;6.912;2022-07-12T04:12:45;12.80;99.90
13652;DHT22;6899;51.546;6.912;2022-07-12T04:15:13;12.80;99.90
13652;DHT22;6899;51.546;6.912;2022-07-12T04:17:40;12.80;99.90
13652;DHT22;6899;51.546;6.912;2022-07-12T04:20:10;12.80;99.90
13652;DHT22;6899;51.546;6.912;2022-07-12T04:22:37;12.90;99.90
13652;DHT22;6899;51.546;6.912;2022-07-12T04:25:04;12.90;99.90
13652;DHT22;6899;51.546;6.912;2022-07-12T04:27:32;13.00;99.90
13652;DHT22;6899;51.546;6.912;2022-07-12T04:29:59;13.10;99.90
13652;DHT22;6899;51.546;6.912;2022-07-12T04:32:27;13.10;99.90
13652;DHT22;6899;51.546;6.912;2022-07-12T04:34:54;13.20;99.90
13652;DHT22;6899;51.546;6.912;2022-07-12T04:37:20;13.20;99.90
13652;DHT22;6899;51.546;6.912;2022-07-12T04:39:47;13.30;99.90
13652;DHT22;6899;51.546;6.912;2022-07-12T04:42:14;13.40;99.90
13652;DHT22;6899;51.546;6.912;2022-07-12T04:44:41;13.50;99.90
13652;DHT22;6899;51.546;6.912;2022-07-12T04:47:08;13.60;99.90
13652;DHT22;6899;51.546;6.912;2022-07-12T04:49:37;13.80;99.90
13652;DHT22;6899;51.546;6.912;2022-07-12T04:52:05;13.90;99.90
13652;DHT22;6899;51.546;6.912;2022-07-12T04:54:32;13.90;99.90
13652;DHT22;6899;51.546;6.912;2022-07-12T04:56:58;14.00;99.90
13652;DHT22;6899;51.546;6.912;2022-07-12T04:59:25;14.00;99.90
13652;DHT22;6899;51.546;6.912;2022-07-12T05:01:52;14.00;99.90
13652;DHT22;6899;51.546;6.912;2022-07-12T05:04:19;14.10;99.90
13652;DHT22;6899;51.546;6.912;2022-07-12T05:06:48;14.10;99.90
13652;DHT22;6899;51.546;6.912;2022-07-12T05:09:14;14.10;99.90
13652;DHT22;6899;51.546;6.912;2022-07-12T05:11:41;14.20;99.90
13652;DHT22;6899;51.546;6.912;2022-07-12T05:14:08;14.20;99.90
13652;DHT22;6899;51.546;6.912;2022-07-12T05:16:35;14.40;99.90
13652;DHT22;6899;51.546;6.912;2022-07-12T05:19:02;16.10;99.90
13652;DHT22;6899;51.546;6.912;2022-07-12T05:21:28;17.90;99.90
13652;DHT22;6899;51.546;6.912;2022-07-12T05:23:57;19.30;99.90
13652;DHT22;6899;51.546;6.912;2022-07-12T05:26:23;20.80;99.90
13652;DHT22;6899;51.546;6.912;2022-07-12T05:28:50;21.20;99.90
13652;DHT22;6899;51.546;6.912;2022-07-12T05:31:17;21.70;99.90
13652;DHT22;6899;51.546;6.912;2022-07-12T05:33:44;21.00;99.90
13652;DHT22;6899;51.546;6.912;2022-07-12T05:36:11;22.30;99.90
13652;DHT22;6899;51.546;6.912;2022-07-12T05:38:38;23.40;99.90
13652;DHT22;6899;51.546;6.912;2022-07-12T05:41:06;24.90;99.90
13652;DHT22;6899;51.546;6.912;2022-07-12T05:43:33;25.80;99.90
13652;DHT22;6899;51.546;6.912;2022-07-12T05:46:00;26.40;99.90
13652;DHT22;6899;51.546;6.912;2022-07-12T05:48:27;26.90;99.90
13652;DHT22;6899;51.546;6.912;2022-07-12T05:50:54;27.30;99.90
13652;DHT22;6899;51.546;6.912;2022-07-12T05:53:20;27.20;99.90
13652;DHT22;6899;51.546;6.912;2022-07-12T05:55:50;28.10;99.90
13652;DHT22;6899;51.546;6.912;2022-07-12T05:58:19;29.00;99.90
13652;DHT22;6899;51.546;6.912;2022-07-12T06:00:46;29.40;99.90
13652;DHT22;6899;51.546;6.912;2022-07-12T06:03:14;29.30;99.90
13652;DHT22;6899;51.546;6.912;2022-07-12T06:05:42;29.30;99.20
13652;DHT22;6899;51.546;6.912;2022-07-12T06:08:09;29.70;99.90
13652;DHT22;6899;51.546;6.912;2022-07-12T06:10:36;30.30;99.90
13652;DHT22;6899;51.546;6.912;2022-07-12T06:13:02;30.50;78.10
13652;DHT22;6899;51.546;6.912;2022-07-12T06:15:31;30.80;88.80
13652;DHT22;6899;51.546;6.912;2022-07-12T06:17:58;30.80;85.30
13652;DHT22;6899;51.546;6.912;2022-07-12T06:20:25;30.80;72.30
13652;DHT22;6899;51.546;6.912;2022-07-12T06:22:52;30.90;81.20
13652;DHT22;6899;51.546;6.912;2022-07-12T06:25:19;31.00;67.60
13652;DHT22;6899;51.546;6.912;2022-07-12T06:27:46;30.60;64.20
13652;DHT22;6899;51.546;6.912;2022-07-12T06:30:15;29.80;65.50
13652;DHT22;6899;51.546;6.912;2022-07-12T06:32:45;30.00;64.90
13652;DHT22;6899;51.546;6.912;2022-07-12T06:35:12;30.40;66.80
13652;DHT22;6899;51.546;6.912;2022-07-12T06:37:39;30.60;66.10
13652;DHT22;6899;51.546;6.912;2022-07-12T06:40:07;30.90;65.20
13652;DHT22;6899;51.546;6.912;2022-07-12T06:42:35;31.40;64.50
13652;DHT22;6899;51.546;6.912;2022-07-12T06:45:02;32.40;61.80
13652;DHT22;6899;51.546;6.912;2022-07-12T06:47:29;31.90;59.60
13652;DHT22;6899;51.546;6.912;2022-07-12T06:49:58;31.90;61.40
13652;DHT22;6899;51.546;6.912;2022-07-12T06:52:25;31.60;62.00
13652;DHT22;6899;51.546;6.912;2022-07-12T06:54:51;31.00;61.40
13652;DHT22;6899;51.546;6.912;2022-07-12T06:57:18;29.70;64.80
13652;DHT22;6899;51.546;6.912;2022-07-12T06:59:45;30.70;66.60
13652;DHT22;6899;51.546;6.912;2022-07-12T07:02:13;31.40;61.40
13652;DHT22;6899;51.546;6.912;2022-07-12T07:04:40;31.90;63.70
13652;DHT22;6899;51.546;6.912;2022-07-12T07:07:09;32.30;61.10
13652;DHT22;6899;51.546;6.912;2022-07-12T07:09:36;32.70;58.80
13652;DHT22;6899;51.546;6.912;2022-07-12T07:12:03;32.30;57.60
13652;DHT22;6899;51.546;6.912;2022-07-12T07:14:31;32.50;58.10
13652;DHT22;6899;51.546;6.912;2022-07-12T07:16:58;31.10;56.90
13652;DHT22;6899;51.546;6.912;2022-07-12T07:19:24;31.60;59.80
13652;DHT22;6899;51.546;6.912;2022-07-12T07:21:52;31.40;57.80
13652;DHT22;6899;51.546;6.912;2022-07-12T07:24:21;32.80;59.40
13652;DHT22;6899;51.546;6.912;2022-07-12T07:26:48;32.10;56.90
13652;DHT22;6899;51.546;6.912;2022-07-12T07:29:15;32.70;56.30
13652;DHT22;6899;51.546;6.912;2022-07-12T07:31:59;32.70;56.80
13652;DHT22;6899;51.546;6.912;2022-07-12T07:34:26;33.40;55.10
13652;DHT22;6899;51.546;6.912;2022-07-12T07:36:53;32.80;56.70
13652;DHT22;6899;51.546;6.912;2022-07-12T07:39:21;32.10;57.20
13652;DHT22;6899;51.546;6.912;2022-07-12T07:41:48;32.50;58.30
13652;DHT22;6899;51.546;6.912;2022-07-12T07:44:15;32.70;58.60
13652;DHT22;6899;51.546;6.912;2022-07-12T07:46:42;33.30;55.90
13652;DHT22;6899;51.546;6.912;2022-07-12T07:49:08;33.60;52.40
13652;DHT22;6899;51.546;6.912;2022-07-12T07:51:36;33.90;53.90
13652;DHT22;6899;51.546;6.912;2022-07-12T07:54:02;34.80;52.20
13652;DHT22;6899;51.546;6.912;2022-07-12T07:56:31;34.50;51.10
13652;DHT22;6899;51.546;6.912;2022-07-12T07:58:58;34.10;51.40
13652;DHT22;6899;51.546;6.912;2022-07-12T08:01:24;34.20;50.90
13652;DHT22;6899;51.546;6.912;2022-07-12T08:04:05;34.10;51.60
13652;DHT22;6899;51.546;6.912;2022-07-12T08:06:32;33.90;51.40
13652;DHT22;6899;51.546;6.912;2022-07-12T08:08:59;34.10;50.90
13652;DHT22;6899;51.546;6.912;2022-07-12T08:11:25;34.30;51.90
13652;DHT22;6899;51.546;6.912;2022-07-12T08:13:54;33.70;52.30
13652;DHT22;6899;51.546;6.912;2022-07-12T08:16:20;34.80;51.40
13652;DHT22;6899;51.546;6.912;2022-07-12T08:18:47;35.30;47.70
13652;DHT22;6899;51.546;6.912;2022-07-12T08:21:14;34.40;50.10
13652;DHT22;6899;51.546;6.912;2022-07-12T08:23:41;33.40;50.00
13652;DHT22;6899;51.546;6.912;2022-07-12T08:26:08;33.30;52.50
13652;DHT22;6899;51.546;6.912;2022-07-12T08:28:35;33.40;51.50
13652;DHT22;6899;51.546;6.912;2022-07-12T08:31:03;34.10;51.10
13652;DHT22;6899;51.546;6.912;2022-07-12T08:33:30;33.90;49.90
13652;DHT22;6899;51.546;6.912;2022-07-12T08:35:57;34.60;50.70
13652;DHT22;6899;51.546;6.912;2022-07-12T08:38:24;34.40;49.80
13652;DHT22;6899;51.546;6.912;2022-07-12T08:40:51;34.90;49.50
13652;DHT22;6899;51.546;6.912;2022-07-12T08:43:18;34.50;48.30
13652;DHT22;6899;51.546;6.912;2022-07-12T08:45:44;33.60;49.60
13652;DHT22;6899;51.546;6.912;2022-07-12T08:48:13;33.40;49.80
13652;DHT22;6899;51.546;6.912;2022-07-12T08:50:40;32.70;52.90
13652;DHT22;6899;51.546;6.912;2022-07-12T08:53:11;33.10;52.70
13652;DHT22;6899;51.546;6.912;2022-07-12T08:55:38;32.60;50.40
13652;DHT22;6899;51.546;6.912;2022-07-12T08:58:15;32.90;52.70
13652;DHT22;6899;51.546;6.912;2022-07-12T09:00:42;33.30;51.20
13652;DHT22;6899;51.546;6.912;2022-07-12T09:03:08;33.10;50.50
13652;DHT22;6899;51.546;6.912;2022-07-12T09:05:47;33.60;48.10
13652;DHT22;6899;51.546;6.912;2022-07-12T09:08:14;32.80;48.20
13652;DHT22;6899;51.546;6.912;2022-07-12T09:10:52;32.70;49.80
13652;DHT22;6899;51.546;6.912;2022-07-12T09:13:21;33.00;49.40
13652;DHT22;6899;51.546;6.912;2022-07-12T09:16:13;33.40;49.70
13652;DHT22;6899;51.546;6.912;2022-07-12T09:18:41;33.50;50.40
13652;DHT22;6899;51.546;6.912;2022-07-12T09:21:09;33.70;47.70
13652;DHT22;6899;51.546;6.912;2022-07-12T09:23:36;34.00;49.50
13652;DHT22;6899;51.546;6.912;2022-07-12T09:26:08;33.30;49.70
13652;DHT22;6899;51.546;6.912;2022-07-12T09:28:35;33.30;50.20
13652;DHT22;6899;51.546;6.912;2022-07-12T09:31:02;33.40;49.40
13652;DHT22;6899;51.546;6.912;2022-07-12T09:33:29;33.70;50.70
13652;DHT22;6899;51.546;6.912;2022-07-12T09:36:14;33.00;49.20
13652;DHT22;6899;51.546;6.912;2022-07-12T09:38:50;32.40;50.50
13652;DHT22;6899;51.546;6.912;2022-07-12T09:41:19;32.20;49.20
13652;DHT22;6899;51.546;6.912;2022-07-12T09:43:48;32.20;50.70
13652;DHT22;6899;51.546;6.912;2022-07-12T09:46:16;32.20;49.70
13652;DHT22;6899;51.546;6.912;2022-07-12T09:48:44;32.10;50.60
13652;DHT22;6899;51.546;6.912;2022-07-12T09:51:15;32.50;50.70
13652;DHT22;6899;51.546;6.912;2022-07-12T09:53:44;31.80;50.20
13652;DHT22;6899;51.546;6.912;2022-07-12T09:56:13;31.50;49.50
13652;DHT22;6899;51.546;6.912;2022-07-12T09:58:46;31.40;51.40
13652;DHT22;6899;51.546;6.912;2022-07-12T10:01:16;31.90;49.90
13652;DHT22;6899;51.546;6.912;2022-07-12T10:03:43;32.10;47.70
13652;DHT22;6899;51.546;6.912;2022-07-12T10:06:13;31.80;50.60
13652;DHT22;6899;51.546;6.912;2022-07-12T10:08:44;32.10;51.20
13652;DHT22;6899;51.546;6.912;2022-07-12T10:11:12;31.60;50.50
13652;DHT22;6899;51.546;6.912;2022-07-12T10:13:39;31.60;50.60
13652;DHT22;6899;51.546;6.912;2022-07-12T10:16:08;32.30;49.60
13652;DHT22;6899;51.546;6.912;2022-07-12T10:18:36;32.80;49.50
13652;DHT22;6899;51.546;6.912;2022-07-12T10:21:18;32.70;48.80
13652;DHT22;6899;51.546;6.912;2022-07-12T10:23:47;32.40;48.20
13652;DHT22;6899;51.546;6.912;2022-07-12T10:26:36;32.20;50.20
13652;DHT22;6899;51.546;6.912;2022-07-12T10:29:07;31.80;49.80
13652;DHT22;6899;51.546;6.912;2022-07-12T10:31:36;31.80;50.50
13652;DHT22;6899;51.546;6.912;2022-07-12T10:34:11;31.40;50.00
13652;DHT22;6899;51.546;6.912;2022-07-12T10:40:15;31.10;50.60
13652;DHT22;6899;51.546;6.912;2022-07-12T10:43:14;31.70;49.40
13652;DHT22;6899;51.546;6.912;2022-07-12T10:45:42;31.80;49.00
13652;DHT22;6899;51.546;6.912;2022-07-12T10:48:19;31.50;49.90
13652;DHT22;6899;51.546;6.912;2022-07-12T10:50:56;31.60;47.80
13652;DHT22;6899;51.546;6.912;2022-07-12T10:53:25;32.20;49.30
13652;DHT22;6899;51.546;6.912;2022-07-12T10:56:20;32.00;46.70
13652;DHT22;6899;51.546;6.912;2022-07-12T10:58:49;32.00;48.40
13652;DHT22;6899;51.546;6.912;2022-07-12T11:01:18;32.20;46.20
13652;DHT22;6899;51.546;6.912;2022-07-12T11:03:46;31.60;48.20
13652;DHT22;6899;51.546;6.912;2022-07-12T11:06:16;31.90;48.20
13652;DHT22;6899;51.546;6.912;2022-07-12T11:08:48;31.80;46.20
13652;DHT22;6899;51.546;6.912;2022-07-12T11:11:18;31.80;47.10
13652;DHT22;6899;51.546;6.912;2022-07-12T11:13:45;31.80;46.70
13652;DHT22;6899;51.546;6.912;2022-07-12T11:16:12;31.40;48.70
13652;DHT22;6899;51.546;6.912;2022-07-12T11:18:39;31.50;47.00
13652;DHT22;6899;51.546;6.912;2022-07-12T11:21:06;31.70;49.30
13652;DHT22;6899;51.546;6.912;2022-07-12T11:23:33;31.90;46.80
13652;DHT22;6899;51.546;6.912;2022-07-12T11:26:02;31.90;48.30
13652;DHT22;6899;51.546;6.912;2022-07-12T11:28:31;32.80;48.90
13652;DHT22;6899;51.546;6.912;2022-07-12T11:31:03;32.80;45.50
13652;DHT22;6899;51.546;6.912;2022-07-12T11:33:31;33.30;45.50
13652;DHT22;6899;51.546;6.912;2022-07-12T11:36:04;32.80;44.90
13652;DHT22;6899;51.546;6.912;2022-07-12T11:38:32;32.60;46.30
13652;DHT22;6899;51.546;6.912;2022-07-12T11:41:00;32.60;43.80
13652;DHT22;6899;51.546;6.912;2022-07-12T11:43:29;32.90;44.60
13652;DHT22;6899;51.546;6.912;2022-07-12T11:45:56;32.70;42.50
13652;DHT22;6899;51.546;6.912;2022-07-12T11:48:24;32.60;43.80
13652;DHT22;6899;51.546;6.912;2022-07-12T11:50:52;32.30;44.60
13652;DHT22;6899;51.546;6.912;2022-07-12T11:53:20;32.60;45.90
13652;DHT22;6899;51.546;6.912;2022-07-12T11:55:49;33.00;45.50
13652;DHT22;6899;51.546;6.912;2022-07-12T11:58:17;33.10;45.40
13652;DHT22;6899;51.546;6.912;2022-07-12T12:00:47;33.00;44.50
13652;DHT22;6899;51.546;6.912;2022-07-12T12:03:17;33.50;44.00
13652;DHT22;6899;51.546;6.912;2022-07-12T12:05:45;34.10;43.70
13652;DHT22;6899;51.546;6.912;2022-07-12T12:08:13;35.00;44.90
13652;DHT22;6899;51.546;6.912;2022-07-12T12:10:41;35.20;42.50
13652;DHT22;6899;51.546;6.912;2022-07-12T12:13:13;35.20;41.90
13652;DHT22;6899;51.546;6.912;2022-07-12T12:15:50;34.80;41.40
13652;DHT22;6899;51.546;6.912;2022-07-12T12:18:28;33.90;39.60
13652;DHT22;6899;51.546;6.912;2022-07-12T12:20:57;33.70;41.90
13652;DHT22;6899;51.546;6.912;2022-07-12T12:23:25;33.70;42.10
13652;DHT22;6899;51.546;6.912;2022-07-12T12:26:08;33.70;42.70
13652;DHT22;6899;51.546;6.912;2022-07-12T12:28:46;33.80;41.70
13652;DHT22;6899;51.546;6.912;2022-07-12T12:31:16;34.00;41.30
13652;DHT22;6899;51.546;6.912;2022-07-12T12:33:43;34.30;40.70
13652;DHT22;6899;51.546;6.912;2022-07-12T12:38:58;34.60;40.10
13652;DHT22;6899;51.546;6.912;2022-07-12T12:41:27;34.10;40.40
13652;DHT22;6899;51.546;6.912;2022-07-12T12:43:59;33.80;41.30
13652;DHT22;6899;51.546;6.912;2022-07-12T12:46:50;34.40;42.60
13652;DHT22;6899;51.546;6.912;2022-07-12T12:49:19;34.60;40.00
13652;DHT22;6899;51.546;6.912;2022-07-12T12:51:53;34.80;40.40
13652;DHT22;6899;51.546;6.912;2022-07-12T12:54:34;35.70;41.80
13652;DHT22;6899;51.546;6.912;2022-07-12T12:57:03;35.80;40.10
13652;DHT22;6899;51.546;6.912;2022-07-12T12:59:30;35.20;40.70
13652;DHT22;6899;51.546;6.912;2022-07-12T13:01:58;36.10;39.80
13652;DHT22;6899;51.546;6.912;2022-07-12T13:04:28;35.30;38.80
13652;DHT22;6899;51.546;6.912;2022-07-12T13:06:56;34.00;40.60
13652;DHT22;6899;51.546;6.912;2022-07-12T13:09:23;33.70;42.10
13652;DHT22;6899;51.546;6.912;2022-07-12T13:11:50;33.40;42.60
13652;DHT22;6899;51.546;6.912;2022-07-12T13:14:17;33.30;43.10
13652;DHT22;6899;51.546;6.912;2022-07-12T13:16:44;33.00;42.50
13652;DHT22;6899;51.546;6.912;2022-07-12T13:19:12;33.30;43.20
13652;DHT22;6899;51.546;6.912;2022-07-12T13:21:39;33.70;41.90
13652;DHT22;6899;51.546;6.912;2022-07-12T13:24:06;33.90;43.30
13652;DHT22;6899;51.546;6.912;2022-07-12T13:26:33;35.00;42.00
13652;DHT22;6899;51.546;6.912;2022-07-12T13:29:00;35.50;39.50
13652;DHT22;6899;51.546;6.912;2022-07-12T13:31:27;35.60;40.70
13652;DHT22;6899;51.546;6.912;2022-07-12T13:33:54;34.70;39.80
13652;DHT22;6899;51.546;6.912;2022-07-12T13:36:22;34.90;39.80
13652;DHT22;6899;51.546;6.912;2022-07-12T13:38:49;35.50;39.80
13652;DHT22;6899;51.546;6.912;2022-07-12T13:41:16;35.70;40.00
13652;DHT22;6899;51.546;6.912;2022-07-12T13:43:43;35.70;39.00
13652;DHT22;6899;51.546;6.912;2022-07-12T13:46:10;35.30;38.50
13652;DHT22;6899;51.546;6.912;2022-07-12T13:48:37;35.30;39.20
13652;DHT22;6899;51.546;6.912;2022-07-12T13:51:04;35.10;38.20
13652;DHT22;6899;51.546;6.912;2022-07-12T13:53:32;35.10;41.10
13652;DHT22;6899;51.546;6.912;2022-07-12T13:55:59;35.30;39.40
13652;DHT22;6899;51.546;6.912;2022-07-12T13:58:25;35.00;40.80
13652;DHT22;6899;51.546;6.912;2022-07-12T14:00:52;35.20;41.30
13652;DHT22;6899;51.546;6.912;2022-07-12T14:03:20;35.10;40.60
13652;DHT22;6899;51.546;6.912;2022-07-12T14:05:47;34.80;40.30
13652;DHT22;6899;51.546;6.912;2022-07-12T14:08:14;34.90;40.70
13652;DHT22;6899;51.546;6.912;2022-07-12T14:10:42;34.90;41.30
13652;DHT22;6899;51.546;6.912;2022-07-12T14:13:09;35.10;40.90
13652;DHT22;6899;51.546;6.912;2022-07-12T14:15:36;35.40;41.20
13652;DHT22;6899;51.546;6.912;2022-07-12T14:18:03;35.40;37.90
13652;DHT22;6899;51.546;6.912;2022-07-12T14:20:32;35.10;38.80
13652;DHT22;6899;51.546;6.912;2022-07-12T14:22:59;34.90;39.60
13652;DHT22;6899;51.546;6.912;2022-07-12T14:25:26;35.20;40.90
13652;DHT22;6899;51.546;6.912;2022-07-12T14:27:55;35.60;41.00
13652;DHT22;6899;51.546;6.912;2022-07-12T14:30:22;35.40;41.10
13652;DHT22;6899;51.546;6.912;2022-07-12T14:32:49;36.00;40.20
13652;DHT22;6899;51.546;6.912;2022-07-12T14:35:16;35.70;39.40
13652;DHT22;6899;51.546;6.912;2022-07-12T14:37:43;35.70;41.50
13652;DHT22;6899;51.546;6.912;2022-07-12T14:40:11;35.30;39.70
13652;DHT22;6899;51.546;6.912;2022-07-12T14:42:38;34.90;40.50
13652;DHT22;6899;51.546;6.912;2022-07-12T14:45:08;34.80;40.80
13652;DHT22;6899;51.546;6.912;2022-07-12T14:47:35;34.70;42.30
13652;DHT22;6899;51.546;6.912;2022-07-12T14:50:03;34.00;41.70
13652;DHT22;6899;51.546;6.912;2022-07-12T14:52:31;33.70;43.00
13652;DHT22;6899;51.546;6.912;2022-07-12T14:54:58;33.70;44.10
13652;DHT22;6899;51.546;6.912;2022-07-12T14:57:25;33.40;43.00
13652;DHT22;6899;51.546;6.912;2022-07-12T14:59:52;33.90;45.00
13652;DHT22;6899;51.546;6.912;2022-07-12T15:02:20;34.10;42.20
13652;DHT22;6899;51.546;6.912;2022-07-12T15:04:47;33.90;42.80
13652;DHT22;6899;51.546;6.912;2022-07-12T15:07:14;33.70;41.80
13652;DHT22;6899;51.546;6.912;2022-07-12T15:09:41;34.40;42.60
13652;DHT22;6899;51.546;6.912;2022-07-12T15:12:08;35.40;41.80
13652;DHT22;6899;51.546;6.912;2022-07-12T15:14:35;35.50;39.10
13652;DHT22;6899;51.546;6.912;2022-07-12T15:17:02;35.00;39.40
13652;DHT22;6899;51.546;6.912;2022-07-12T15:19:31;35.20;38.80
13652;DHT22;6899;51.546;6.912;2022-07-12T15:21:57;35.30;39.60
13652;DHT22;6899;51.546;6.912;2022-07-12T15:24:24;34.80;38.80
13652;DHT22;6899;51.546;6.912;2022-07-12T15:26:52;34.50;39.80
13652;DHT22;6899;51.546;6.912;2022-07-12T15:29:19;34.60;39.50
13652;DHT22;6899;51.546;6.912;2022-07-12T15:31:46;34.50;40.10
13652;DHT22;6899;51.546;6.912;2022-07-12T15:34:12;34.10;40.80
13652;DHT22;6899;51.546;6.912;2022-07-12T15:36:41;33.50;40.80
13652;DHT22;6899;51.546;6.912;2022-07-12T15:39:08;33.60;40.40
13652;DHT22;6899;51.546;6.912;2022-07-12T15:41:36;33.60;41.00
13652;DHT22;6899;51.546;6.912;2022-07-12T15:44:02;33.50;40.20
13652;DHT22;6899;51.546;6.912;2022-07-12T15:46:30;33.50;40.60
13652;DHT22;6899;51.546;6.912;2022-07-12T15:48:57;33.40;41.10
13652;DHT22;6899;51.546;6.912;2022-07-12T15:51:23;33.40;41.70
13652;DHT22;6899;51.546;6.912;2022-07-12T15:54:12;33.20;41.00
13652;DHT22;6899;51.546;6.912;2022-07-12T15:56:38;33.60;42.90
13652;DHT22;6899;51.546;6.912;2022-07-12T15:59:05;33.90;41.50